sensor_id;sensor_type;location;lat;lon;timestamp;P1;durP1;ratioP1;P2;durP2;ratioP2
35290;SDS011;21411;50.024;19.220;2023-04-01T00:01:04;2.50;;;1.50;;
35290;SDS011;21411;50.024;19.220;2023-04-01T00:03:32;2.30;;;1.70;;
35290;SDS011;21411;50.024;19.220;2023-04-01T00:05:59;3.90;;;1.80;;
35290;SDS011;21411;50.024;19.220;2023-04-01T00:08:27;3.60;;;2.00;;
35290;SDS011;21411;50.024;19.220;2023-04-01T00:10:54;3.50;;;1.90;;
35290;SDS011;21411;50.024;19.220;2023-04-01T00:13:23;5.70;;;2.10;;
35290;SDS011;21411;50.024;19.220;2023-04-01T00:15:51;2.60;;;1.90;;
35290;SDS011;21411;50.024;19.220;2023-04-01T00:18:19;3.30;;;1.70;;
35290;SDS011;21411;50.024;19.220;2023-04-01T00:20:47;4.60;;;1.80;;
35290;SDS011;21411;50.024;19.220;2023-04-01T00:23:15;3.30;;;1.70;;
35290;SDS011;21411;50.024;19.220;2023-04-01T00:25:43;3.40;;;1.90;;
35290;SDS011;21411;50.024;19.220;2023-04-01T00:28:11;3.10;;;1.80;;
35290;SDS011;21411;50.024;19.220;2023-04-01T00:30:37;3.90;;;1.60;;
35290;SDS011;21411;50.024;19.220;2023-04-01T00:33:04;3.60;;;2.10;;
35290;SDS011;21411;50.024;19.220;2023-04-01T00:35:31;3.80;;;2.20;;
35290;SDS011;21411;50.024;19.220;2023-04-01T00:37:58;3.60;;;1.60;;
35290;SDS011;21411;50.024;19.220;2023-04-01T00:43:02;2.60;;;1.40;;
35290;SDS011;21411;50.024;19.220;2023-04-01T00:45:31;2.20;;;1.20;;
35290;SDS011;21411;50.024;19.220;2023-04-01T00:48:07;1.70;;;1.30;;
35290;SDS011;21411;50.024;19.220;2023-04-01T00:50:39;2.80;;;1.50;;
35290;SDS011;21411;50.024;19.220;2023-04-01T00:53:08;4.70;;;1.70;;
35290;SDS011;21411;50.024;19.220;2023-04-01T00:55:40;4.30;;;1.70;;
35290;SDS011;21411;50.024;19.220;2023-04-01T00:58:13;2.80;;;1.50;;
35290;SDS011;21411;50.024;19.220;2023-04-01T01:00:43;3.60;;;1.50;;
35290;SDS011;21411;50.024;19.220;2023-04-01T01:03:13;3.20;;;1.70;;
35290;SDS011;21411;50.024;19.220;2023-04-01T01:28:57;2.90;;;2.20;;
35290;SDS011;21411;50.024;19.220;2023-04-01T01:36:28;3.60;;;1.70;;
35290;SDS011;21411;50.024;19.220;2023-04-01T01:39:01;2.50;;;1.60;;
35290;SDS011;21411;50.024;19.220;2023-04-01T01:41:31;2.90;;;1.80;;
35290;SDS011;21411;50.024;19.220;2023-04-01T01:44:00;4.40;;;1.70;;
35290;SDS011;21411;50.024;19.220;2023-04-01T01:46:30;3.40;;;1.90;;
35290;SDS011;21411;50.024;19.220;2023-04-01T01:48:57;4.40;;;2.10;;
35290;SDS011;21411;50.024;19.220;2023-04-01T01:51:26;3.80;;;1.90;;
35290;SDS011;21411;50.024;19.220;2023-04-01T01:53:54;2.70;;;1.80;;
35290;SDS011;21411;50.024;19.220;2023-04-01T01:56:22;3.00;;;2.10;;
35290;SDS011;21411;50.024;19.220;2023-04-01T01:59:00;3.70;;;1.90;;
35290;SDS011;21411;50.024;19.220;2023-04-01T02:01:32;3.80;;;2.10;;
35290;SDS011;21411;50.024;19.220;2023-04-01T02:04:10;4.80;;;2.10;;
35290;SDS011;21411;50.024;19.220;2023-04-01T02:06:41;3.00;;;2.10;;
35290;SDS011;21411;50.024;19.220;2023-04-01T02:09:12;4.30;;;2.10;;
35290;SDS011;21411;50.024;19.220;2023-04-01T02:14:18;3.80;;;2.50;;
35290;SDS011;21411;50.024;19.220;2023-04-01T02:20:04;4.20;;;1.90;;
35290;SDS011;21411;50.024;19.220;2023-04-01T02:22:36;2.10;;;1.40;;
35290;SDS011;21411;50.024;19.220;2023-04-01T02:25:09;4.50;;;2.20;;
35290;SDS011;21411;50.024;19.220;2023-04-01T02:27:39;3.50;;;2.10;;
35290;SDS011;21411;50.024;19.220;2023-04-01T02:30:08;3.10;;;2.00;;
35290;SDS011;21411;50.024;19.220;2023-04-01T02:32:35;2.60;;;2.10;;
35290;SDS011;21411;50.024;19.220;2023-04-01T02:35:06;2.90;;;1.80;;
35290;SDS011;21411;50.024;19.220;2023-04-01T02:37:35;3.30;;;1.90;;
35290;SDS011;21411;50.024;19.220;2023-04-01T02:40:02;4.00;;;2.00;;
35290;SDS011;21411;50.024;19.220;2023-04-01T02:42:33;5.90;;;1.80;;
35290;SDS011;21411;50.024;19.220;2023-04-01T02:45:00;3.10;;;1.80;;
35290;SDS011;21411;50.024;19.220;2023-04-01T02:47:27;2.30;;;1.80;;
35290;SDS011;21411;50.024;19.220;2023-04-01T02:49:54;4.00;;;1.80;;
35290;SDS011;21411;50.024;19.220;2023-04-01T02:52:24;3.30;;;2.10;;
35290;SDS011;21411;50.024;19.220;2023-04-01T02:54:51;2.50;;;1.90;;
35290;SDS011;21411;50.024;19.220;2023-04-01T02:57:18;3.10;;;1.60;;
35290;SDS011;21411;50.024;19.220;2023-04-01T02:59:44;5.50;;;2.20;;
35290;SDS011;21411;50.024;19.220;2023-04-01T03:02:11;3.60;;;2.10;;
35290;SDS011;21411;50.024;19.220;2023-04-01T03:04:38;3.90;;;1.90;;
35290;SDS011;21411;50.024;19.220;2023-04-01T03:07:05;4.80;;;1.90;;
35290;SDS011;21411;50.024;19.220;2023-04-01T03:09:32;3.20;;;1.90;;
35290;SDS011;21411;50.024;19.220;2023-04-01T03:11:58;4.00;;;1.80;;
35290;SDS011;21411;50.024;19.220;2023-04-01T03:14:25;3.70;;;1.80;;
35290;SDS011;21411;50.024;19.220;2023-04-01T03:16:52;2.20;;;1.70;;
35290;SDS011;21411;50.024;19.220;2023-04-01T03:19:18;2.10;;;1.60;;
35290;SDS011;21411;50.024;19.220;2023-04-01T03:21:45;3.30;;;1.70;;
35290;SDS011;21411;50.024;19.220;2023-04-01T03:24:11;4.00;;;1.90;;
35290;SDS011;21411;50.024;19.220;2023-04-01T03:26:38;3.50;;;2.00;;
35290;SDS011;21411;50.024;19.220;2023-04-01T03:29:04;2.70;;;1.70;;
35290;SDS011;21411;50.024;19.220;2023-04-01T03:31:31;5.00;;;2.10;;
35290;SDS011;21411;50.024;19.220;2023-04-01T03:33:58;3.70;;;2.20;;
35290;SDS011;21411;50.024;19.220;2023-04-01T03:36:24;5.20;;;2.60;;
35290;SDS011;21411;50.024;19.220;2023-04-01T03:38:51;4.60;;;2.30;;
35290;SDS011;21411;50.024;19.220;2023-04-01T03:41:18;5.60;;;2.40;;
35290;SDS011;21411;50.024;19.220;2023-04-01T03:43:44;3.20;;;1.90;;
35290;SDS011;21411;50.024;19.220;2023-04-01T03:46:12;2.40;;;1.70;;
35290;SDS011;21411;50.024;19.220;2023-04-01T03:48:43;3.50;;;1.80;;
35290;SDS011;21411;50.024;19.220;2023-04-01T03:51:09;2.90;;;2.10;;
35290;SDS011;21411;50.024;19.220;2023-04-01T03:53:36;3.70;;;1.70;;
35290;SDS011;21411;50.024;19.220;2023-04-01T03:56:06;3.40;;;1.90;;
35290;SDS011;21411;50.024;19.220;2023-04-01T03:58:34;4.10;;;1.90;;
35290;SDS011;21411;50.024;19.220;2023-04-01T04:01:01;3.80;;;2.00;;
35290;SDS011;21411;50.024;19.220;2023-04-01T04:03:27;6.10;;;2.20;;
35290;SDS011;21411;50.024;19.220;2023-04-01T04:05:54;3.90;;;2.10;;
35290;SDS011;21411;50.024;19.220;2023-04-01T04:08:22;4.20;;;2.30;;
35290;SDS011;21411;50.024;19.220;2023-04-01T04:10:54;4.80;;;2.30;;
35290;SDS011;21411;50.024;19.220;2023-04-01T04:13:22;2.30;;;2.10;;
35290;SDS011;21411;50.024;19.220;2023-04-01T04:15:48;3.30;;;2.00;;
35290;SDS011;21411;50.024;19.220;2023-04-01T04:18:15;4.60;;;2.10;;
35290;SDS011;21411;50.024;19.220;2023-04-01T04:20:45;4.10;;;2.00;;
35290;SDS011;21411;50.024;19.220;2023-04-01T04:23:14;3.80;;;1.70;;
35290;SDS011;21411;50.024;19.220;2023-04-01T04:25:41;5.40;;;2.00;;
35290;SDS011;21411;50.024;19.220;2023-04-01T04:28:07;5.70;;;2.40;;
35290;SDS011;21411;50.024;19.220;2023-04-01T04:30:34;5.30;;;2.90;;
35290;SDS011;21411;50.024;19.220;2023-04-01T04:33:00;7.70;;;3.40;;
35290;SDS011;21411;50.024;19.220;2023-04-01T04:35:27;6.30;;;3.00;;
35290;SDS011;21411;50.024;19.220;2023-04-01T04:37:54;6.00;;;3.70;;
35290;SDS011;21411;50.024;19.220;2023-04-01T04:40:21;5.80;;;3.60;;
35290;SDS011;21411;50.024;19.220;2023-04-01T04:42:47;5.80;;;3.30;;
35290;SDS011;21411;50.024;19.220;2023-04-01T04:45:14;5.00;;;3.10;;
35290;SDS011;21411;50.024;19.220;2023-04-01T04:47:41;5.50;;;3.10;;
35290;SDS011;21411;50.024;19.220;2023-04-01T04:50:07;4.40;;;3.00;;
35290;SDS011;21411;50.024;19.220;2023-04-01T04:52:35;4.40;;;3.00;;
35290;SDS011;21411;50.024;19.220;2023-04-01T04:55:01;5.70;;;2.90;;
35290;SDS011;21411;50.024;19.220;2023-04-01T04:57:28;4.10;;;2.60;;
35290;SDS011;21411;50.024;19.220;2023-04-01T04:59:54;4.20;;;2.50;;
35290;SDS011;21411;50.024;19.220;2023-04-01T05:02:21;4.40;;;2.70;;
35290;SDS011;21411;50.024;19.220;2023-04-01T05:04:48;3.90;;;2.70;;
35290;SDS011;21411;50.024;19.220;2023-04-01T05:07:15;6.60;;;3.20;;
35290;SDS011;21411;50.024;19.220;2023-04-01T05:09:41;4.10;;;2.60;;
35290;SDS011;21411;50.024;19.220;2023-04-01T05:12:09;5.30;;;2.60;;
35290;SDS011;21411;50.024;19.220;2023-04-01T05:14:35;5.20;;;3.40;;
35290;SDS011;21411;50.024;19.220;2023-04-01T05:17:02;6.30;;;3.80;;
35290;SDS011;21411;50.024;19.220;2023-04-01T05:19:28;9.10;;;4.90;;
35290;SDS011;21411;50.024;19.220;2023-04-01T05:21:55;7.40;;;3.90;;
35290;SDS011;21411;50.024;19.220;2023-04-01T05:24:21;4.80;;;3.10;;
35290;SDS011;21411;50.024;19.220;2023-04-01T05:26:48;6.90;;;3.10;;
35290;SDS011;21411;50.024;19.220;2023-04-01T05:29:15;4.20;;;2.80;;
35290;SDS011;21411;50.024;19.220;2023-04-01T05:31:41;5.20;;;3.10;;
35290;SDS011;21411;50.024;19.220;2023-04-01T05:34:08;6.30;;;3.20;;
35290;SDS011;21411;50.024;19.220;2023-04-01T05:36:34;4.30;;;2.60;;
35290;SDS011;21411;50.024;19.220;2023-04-01T05:39:02;6.10;;;3.00;;
35290;SDS011;21411;50.024;19.220;2023-04-01T05:41:29;4.40;;;2.50;;
35290;SDS011;21411;50.024;19.220;2023-04-01T05:43:56;3.30;;;2.30;;
35290;SDS011;21411;50.024;19.220;2023-04-01T05:46:22;5.20;;;2.50;;
35290;SDS011;21411;50.024;19.220;2023-04-01T05:48:49;6.10;;;3.30;;
35290;SDS011;21411;50.024;19.220;2023-04-01T05:51:16;3.70;;;2.70;;
35290;SDS011;21411;50.024;19.220;2023-04-01T05:53:42;4.80;;;2.80;;
35290;SDS011;21411;50.024;19.220;2023-04-01T05:56:09;4.20;;;2.50;;
35290;SDS011;21411;50.024;19.220;2023-04-01T05:58:36;3.60;;;2.60;;
35290;SDS011;21411;50.024;19.220;2023-04-01T06:01:05;4.80;;;2.50;;
35290;SDS011;21411;50.024;19.220;2023-04-01T06:03:33;4.10;;;2.40;;
35290;SDS011;21411;50.024;19.220;2023-04-01T06:06:00;4.40;;;2.40;;
35290;SDS011;21411;50.024;19.220;2023-04-01T06:08:27;17.10;;;10.30;;
35290;SDS011;21411;50.024;19.220;2023-04-01T06:16:28;4.40;;;2.80;;
35290;SDS011;21411;50.024;19.220;2023-04-01T06:30:31;4.40;;;2.60;;
35290;SDS011;21411;50.024;19.220;2023-04-01T06:46:48;4.40;;;2.00;;
35290;SDS011;21411;50.024;19.220;2023-04-01T06:55:12;5.80;;;3.20;;
35290;SDS011;21411;50.024;19.220;2023-04-01T06:57:48;4.50;;;2.40;;
35290;SDS011;21411;50.024;19.220;2023-04-01T07:03:00;5.60;;;2.90;;
35290;SDS011;21411;50.024;19.220;2023-04-01T07:05:32;4.50;;;2.80;;
35290;SDS011;21411;50.024;19.220;2023-04-01T07:08:06;4.40;;;2.40;;
35290;SDS011;21411;50.024;19.220;2023-04-01T07:10:41;3.50;;;2.20;;
35290;SDS011;21411;50.024;19.220;2023-04-01T07:13:13;3.90;;;2.20;;
35290;SDS011;21411;50.024;19.220;2023-04-01T07:15:51;4.40;;;2.50;;
35290;SDS011;21411;50.024;19.220;2023-04-01T07:18:32;3.40;;;2.70;;
35290;SDS011;21411;50.024;19.220;2023-04-01T07:21:04;5.40;;;3.20;;
35290;SDS011;21411;50.024;19.220;2023-04-01T07:23:41;4.00;;;3.10;;
35290;SDS011;21411;50.024;19.220;2023-04-01T07:26:21;5.10;;;2.80;;
35290;SDS011;21411;50.024;19.220;2023-04-01T07:28:51;2.40;;;2.20;;
35290;SDS011;21411;50.024;19.220;2023-04-01T07:33:58;5.00;;;2.20;;
35290;SDS011;21411;50.024;19.220;2023-04-01T07:39:22;2.20;;;1.60;;
35290;SDS011;21411;50.024;19.220;2023-04-01T07:42:07;3.80;;;1.80;;
35290;SDS011;21411;50.024;19.220;2023-04-01T07:44:59;4.40;;;2.00;;
35290;SDS011;21411;50.024;19.220;2023-04-01T07:50:41;4.50;;;2.30;;
35290;SDS011;21411;50.024;19.220;2023-04-01T07:56:05;3.80;;;1.70;;
35290;SDS011;21411;50.024;19.220;2023-04-01T07:58:38;4.40;;;1.70;;
35290;SDS011;21411;50.024;19.220;2023-04-01T08:01:31;3.40;;;1.90;;
35290;SDS011;21411;50.024;19.220;2023-04-01T08:12:19;2.80;;;1.90;;
35290;SDS011;21411;50.024;19.220;2023-04-01T08:15:05;4.90;;;3.70;;
35290;SDS011;21411;50.024;19.220;2023-04-01T08:17:46;3.70;;;2.10;;
35290;SDS011;21411;50.024;19.220;2023-04-01T08:20:47;1.90;;;1.50;;
35290;SDS011;21411;50.024;19.220;2023-04-01T08:23:24;2.80;;;1.60;;
35290;SDS011;21411;50.024;19.220;2023-04-01T08:28:44;3.40;;;2.00;;
35290;SDS011;21411;50.024;19.220;2023-04-01T08:31:19;3.60;;;1.90;;
35290;SDS011;21411;50.024;19.220;2023-04-01T08:34:14;3.20;;;1.80;;
35290;SDS011;21411;50.024;19.220;2023-04-01T08:36:51;3.00;;;1.80;;
35290;SDS011;21411;50.024;19.220;2023-04-01T08:39:28;3.60;;;2.10;;
35290;SDS011;21411;50.024;19.220;2023-04-01T08:42:15;3.20;;;2.30;;
35290;SDS011;21411;50.024;19.220;2023-04-01T08:50:36;4.40;;;2.30;;
35290;SDS011;21411;50.024;19.220;2023-04-01T08:56:01;2.80;;;2.10;;
35290;SDS011;21411;50.024;19.220;2023-04-01T09:04:10;3.40;;;2.60;;
35290;SDS011;21411;50.024;19.220;2023-04-01T09:23:36;2.80;;;2.00;;
35290;SDS011;21411;50.024;19.220;2023-04-01T09:37:26;2.70;;;1.90;;
35290;SDS011;21411;50.024;19.220;2023-04-01T09:45:50;3.00;;;2.10;;
35290;SDS011;21411;50.024;19.220;2023-04-01T09:48:36;3.90;;;2.30;;
35290;SDS011;21411;50.024;19.220;2023-04-01T09:54:00;3.60;;;2.80;;
35290;SDS011;21411;50.024;19.220;2023-04-01T09:59:24;5.00;;;3.50;;
35290;SDS011;21411;50.024;19.220;2023-04-01T10:10:34;2.80;;;2.10;;
35290;SDS011;21411;50.024;19.220;2023-04-01T10:13:36;2.30;;;2.10;;
35290;SDS011;21411;50.024;19.220;2023-04-01T10:39:00;3.30;;;2.60;;
35290;SDS011;21411;50.024;19.220;2023-04-01T11:04:44;2.70;;;2.30;;
35290;SDS011;21411;50.024;19.220;2023-04-01T11:18:37;2.90;;;2.60;;
35290;SDS011;21411;50.024;19.220;2023-04-01T11:27:39;4.00;;;2.30;;
35290;SDS011;21411;50.024;19.220;2023-04-01T11:36:11;3.40;;;2.80;;
35290;SDS011;21411;50.024;19.220;2023-04-01T11:55:23;2.20;;;1.20;;
35290;SDS011;21411;50.024;19.220;2023-04-01T12:06:23;1.30;;;1.00;;
35290;SDS011;21411;50.024;19.220;2023-04-01T12:29:47;4.20;;;2.50;;
35290;SDS011;21411;50.024;19.220;2023-04-01T12:40:30;4.40;;;3.20;;
35290;SDS011;21411;50.024;19.220;2023-04-01T13:07:48;4.50;;;3.50;;
35290;SDS011;21411;50.024;19.220;2023-04-01T13:13:26;5.70;;;4.40;;
35290;SDS011;21411;50.024;19.220;2023-04-01T13:21:44;6.20;;;4.60;;
35290;SDS011;21411;50.024;19.220;2023-04-01T13:26:53;5.90;;;4.80;;
35290;SDS011;21411;50.024;19.220;2023-04-01T13:32:47;7.60;;;4.90;;
35290;SDS011;21411;50.024;19.220;2023-04-01T13:37:54;4.20;;;3.50;;
35290;SDS011;21411;50.024;19.220;2023-04-01T13:40:46;4.00;;;3.00;;
35290;SDS011;21411;50.024;19.220;2023-04-01T13:43:32;6.10;;;4.10;;
35290;SDS011;21411;50.024;19.220;2023-04-01T13:57:06;15.10;;;13.50;;
35290;SDS011;21411;50.024;19.220;2023-04-01T14:03:13;8.40;;;7.70;;
35290;SDS011;21411;50.024;19.220;2023-04-01T14:09:26;4.30;;;3.30;;
35290;SDS011;21411;50.024;19.220;2023-04-01T14:12:31;6.10;;;4.90;;
35290;SDS011;21411;50.024;19.220;2023-04-01T14:20:55;4.20;;;3.50;;
35290;SDS011;21411;50.024;19.220;2023-04-01T14:23:51;10.00;;;9.00;;
35290;SDS011;21411;50.024;19.220;2023-04-01T14:37:22;6.70;;;4.10;;
35290;SDS011;21411;50.024;19.220;2023-04-01T14:45:20;6.50;;;4.30;;
35290;SDS011;21411;50.024;19.220;2023-04-01T14:50:41;5.30;;;4.50;;
35290;SDS011;21411;50.024;19.220;2023-04-01T14:55:50;7.50;;;5.20;;
35290;SDS011;21411;50.024;19.220;2023-04-01T14:58:18;8.30;;;5.80;;
35290;SDS011;21411;50.024;19.220;2023-04-01T15:03:20;7.60;;;5.50;;
35290;SDS011;21411;50.024;19.220;2023-04-01T15:08:44;6.50;;;4.80;;
35290;SDS011;21411;50.024;19.220;2023-04-01T15:11:24;5.40;;;3.80;;
35290;SDS011;21411;50.024;19.220;2023-04-01T15:14:26;5.30;;;4.40;;
35290;SDS011;21411;50.024;19.220;2023-04-01T15:17:16;3.90;;;3.00;;
35290;SDS011;21411;50.024;19.220;2023-04-01T15:22:26;5.30;;;3.60;;
35290;SDS011;21411;50.024;19.220;2023-04-01T15:33:31;26.80;;;14.90;;
35290;SDS011;21411;50.024;19.220;2023-04-01T15:41:35;12.60;;;8.00;;
35290;SDS011;21411;50.024;19.220;2023-04-01T15:46:56;6.20;;;5.60;;
35290;SDS011;21411;50.024;19.220;2023-04-01T15:57:51;7.80;;;6.50;;
35290;SDS011;21411;50.024;19.220;2023-04-01T16:00:26;5.10;;;4.50;;
35290;SDS011;21411;50.024;19.220;2023-04-01T16:14:07;6.30;;;5.50;;
35290;SDS011;21411;50.024;19.220;2023-04-01T16:17:05;7.80;;;7.00;;
35290;SDS011;21411;50.024;19.220;2023-04-01T16:19:51;6.10;;;5.50;;
35290;SDS011;21411;50.024;19.220;2023-04-01T16:25:14;4.70;;;3.30;;
35290;SDS011;21411;50.024;19.220;2023-04-01T16:27:54;3.30;;;2.70;;
35290;SDS011;21411;50.024;19.220;2023-04-01T16:43:45;2.80;;;2.30;;
35290;SDS011;21411;50.024;19.220;2023-04-01T16:51:44;6.90;;;5.70;;
35290;SDS011;21411;50.024;19.220;2023-04-01T16:54:47;5.40;;;4.40;;
35290;SDS011;21411;50.024;19.220;2023-04-01T17:00:36;8.30;;;6.00;;
35290;SDS011;21411;50.024;19.220;2023-04-01T17:25:37;16.10;;;14.40;;
35290;SDS011;21411;50.024;19.220;2023-04-01T17:36:28;22.60;;;19.00;;
35290;SDS011;21411;50.024;19.220;2023-04-01T17:41:50;22.70;;;20.40;;
35290;SDS011;21411;50.024;19.220;2023-04-01T17:44:45;24.00;;;21.40;;
35290;SDS011;21411;50.024;19.220;2023-04-01T17:57:52;33.80;;;20.50;;
35290;SDS011;21411;50.024;19.220;2023-04-01T18:08:44;15.00;;;13.40;;
35290;SDS011;21411;50.024;19.220;2023-04-01T18:11:24;14.30;;;12.10;;
35290;SDS011;21411;50.024;19.220;2023-04-01T18:22:17;15.60;;;14.00;;
35290;SDS011;21411;50.024;19.220;2023-04-01T18:32:51;11.50;;;10.20;;
35290;SDS011;21411;50.024;19.220;2023-04-01T18:35:27;14.30;;;12.80;;
35290;SDS011;21411;50.024;19.220;2023-04-01T18:38:28;15.50;;;13.90;;
35290;SDS011;21411;50.024;19.220;2023-04-01T18:41:10;16.50;;;15.00;;
35290;SDS011;21411;50.024;19.220;2023-04-01T18:43:57;22.90;;;18.20;;
35290;SDS011;21411;50.024;19.220;2023-04-01T18:46:49;19.50;;;17.50;;
35290;SDS011;21411;50.024;19.220;2023-04-01T18:49:33;18.50;;;16.70;;
35290;SDS011;21411;50.024;19.220;2023-04-01T18:52:13;23.00;;;18.50;;
35290;SDS011;21411;50.024;19.220;2023-04-01T18:57:39;11.30;;;10.20;;
35290;SDS011;21411;50.024;19.220;2023-04-01T19:00:22;13.20;;;11.00;;
35290;SDS011;21411;50.024;19.220;2023-04-01T19:02:58;11.80;;;8.80;;
35290;SDS011;21411;50.024;19.220;2023-04-01T19:05:36;11.80;;;8.90;;
35290;SDS011;21411;50.024;19.220;2023-04-01T19:16:54;8.80;;;7.40;;
35290;SDS011;21411;50.024;19.220;2023-04-01T19:22:44;8.70;;;6.70;;
35290;SDS011;21411;50.024;19.220;2023-04-01T19:27:53;11.90;;;7.90;;
35290;SDS011;21411;50.024;19.220;2023-04-01T19:33:41;34.30;;;21.30;;
35290;SDS011;21411;50.024;19.220;2023-04-01T19:36:54;30.40;;;18.10;;
35290;SDS011;21411;50.024;19.220;2023-04-01T19:51:08;16.90;;;12.10;;
35290;SDS011;21411;50.024;19.220;2023-04-01T19:53:51;63.80;;;33.60;;
35290;SDS011;21411;50.024;19.220;2023-04-01T19:56:21;29.00;;;17.30;;
35290;SDS011;21411;50.024;19.220;2023-04-01T19:59:04;40.10;;;21.90;;
35290;SDS011;21411;50.024;19.220;2023-04-01T20:01:41;44.00;;;23.40;;
35290;SDS011;21411;50.024;19.220;2023-04-01T20:04:28;18.30;;;12.50;;
35290;SDS011;21411;50.024;19.220;2023-04-01T20:09:43;28.40;;;20.30;;
35290;SDS011;21411;50.024;19.220;2023-04-01T20:15:02;17.80;;;15.20;;
35290;SDS011;21411;50.024;19.220;2023-04-01T20:17:32;32.20;;;25.10;;
35290;SDS011;21411;50.024;19.220;2023-04-01T20:25:05;27.20;;;20.30;;
35290;SDS011;21411;50.024;19.220;2023-04-01T20:27:41;25.60;;;18.60;;
35290;SDS011;21411;50.024;19.220;2023-04-01T20:38:59;40.80;;;28.40;;
35290;SDS011;21411;50.024;19.220;2023-04-01T20:41:34;39.00;;;27.30;;
35290;SDS011;21411;50.024;19.220;2023-04-01T20:44:11;45.30;;;32.60;;
35290;SDS011;21411;50.024;19.220;2023-04-01T20:49:41;42.70;;;31.90;;
35290;SDS011;21411;50.024;19.220;2023-04-01T20:58:28;45.10;;;31.20;;
35290;SDS011;21411;50.024;19.220;2023-04-01T21:09:37;47.20;;;34.60;;
35290;SDS011;21411;50.024;19.220;2023-04-01T21:12:19;28.50;;;23.20;;
35290;SDS011;21411;50.024;19.220;2023-04-01T21:14:59;28.00;;;22.30;;
35290;SDS011;21411;50.024;19.220;2023-04-01T21:20:57;33.50;;;27.10;;
35290;SDS011;21411;50.024;19.220;2023-04-01T21:23:47;39.50;;;31.80;;
35290;SDS011;21411;50.024;19.220;2023-04-01T21:26:47;43.70;;;33.20;;
35290;SDS011;21411;50.024;19.220;2023-04-01T21:54:03;46.20;;;34.30;;
35290;SDS011;21411;50.024;19.220;2023-04-01T22:05:17;52.50;;;35.20;;
35290;SDS011;21411;50.024;19.220;2023-04-01T22:16:27;40.00;;;26.70;;
35290;SDS011;21411;50.024;19.220;2023-04-01T22:38:10;26.30;;;20.30;;
35290;SDS011;21411;50.024;19.220;2023-04-01T22:40:46;21.70;;;19.30;;
35290;SDS011;21411;50.024;19.220;2023-04-01T22:43:21;19.10;;;17.00;;
35290;SDS011;21411;50.024;19.220;2023-04-01T22:51:25;22.00;;;17.60;;
35290;SDS011;21411;50.024;19.220;2023-04-01T23:00:07;18.20;;;15.20;;
35290;SDS011;21411;50.024;19.220;2023-04-01T23:05:42;14.30;;;12.60;;
35290;SDS011;21411;50.024;19.220;2023-04-01T23:11:23;16.00;;;12.70;;
35290;SDS011;21411;50.024;19.220;2023-04-01T23:16:45;18.00;;;13.90;;
35290;SDS011;21411;50.024;19.220;2023-04-01T23:19:23;16.90;;;15.10;;
35290;SDS011;21411;50.024;19.220;2023-04-01T23:22:01;18.30;;;16.10;;
35290;SDS011;21411;50.024;19.220;2023-04-01T23:24:39;17.10;;;14.50;;
35290;SDS011;21411;50.024;19.220;2023-04-01T23:27:12;17.00;;;14.00;;
35290;SDS011;21411;50.024;19.220;2023-04-01T23:29:47;15.90;;;14.20;;
35290;SDS011;21411;50.024;19.220;2023-04-01T23:32:17;16.30;;;13.80;;
35290;SDS011;21411;50.024;19.220;2023-04-01T23:34:48;17.50;;;14.30;;
35290;SDS011;21411;50.024;19.220;2023-04-01T23:37:17;15.00;;;13.40;;
35290;SDS011;21411;50.024;19.220;2023-04-01T23:39:50;18.00;;;14.00;;
35290;SDS011;21411;50.024;19.220;2023-04-01T23:44:56;19.90;;;17.90;;
35290;SDS011;21411;50.024;19.220;2023-04-01T23:47:25;20.50;;;17.00;;
35290;SDS011;21411;50.024;19.220;2023-04-01T23:49:57;24.10;;;19.20;;
35290;SDS011;21411;50.024;19.220;2023-04-01T23:52:28;20.40;;;18.40;;
35290;SDS011;21411;50.024;19.220;2023-04-01T23:55:03;20.80;;;18.50;;
35290;SDS011;21411;50.024;19.220;2023-04-01T23:57:39;20.90;;;18.70;;
